Orlando, Florida
Traffic Map
Current Weather Conditions
Orlando, Florida
Overcast Haze
Overcast
76°
Feels Like: 76°
Wind Chill: 76° Ceiling: 200
Heat Index: 76° Visibility: 0.75mi
Dew Point: 76° Wind: 6mph
Humidity: 100% Direction: 160° (SSE)
Pressure: 30.09in Gusts: 0mph
Raw Report DataKORL 011202Z 16005KT 3/4SM BR VV002 24/24 A3009 RMK AO2 VIS 1/4V5 T02440244
Traffic Incident Summary
Active as of:
Severity:
Category:
InformationThere was an issue retrieving the traffic information for this location. Please try a different location or try again shortly.
Advertisements
Track Severe Weather on mobile